Архив погоды в Бикине

Метеограмма Бикин
Суббота, 21 Июля
Время местн. Темп Ветер Видим Явления Облачность нижн/средн/верх Атм. давл. Влжн Точка росы ВНГО R Сост. почвы Tg s
Напр Скр Прв ур.ст ур.м изм
04:00 +21° штиль 0 - 2 км дымка облачно 748 754 -0.3 95% +20.1° 1 км - - - -
01:00 +22.1° штиль 0 - 10 км небо без изменений {ливневые осадки} облачно 748 754 +0.3 93% +21° 1 км - - - -
Пятница, 20 Июля
Время местн. Темп Ветер Видим Явления Облачность нижн/средн/верх Атм. давл. Влжн Точка росы ВНГО R Сост. почвы Tg s
Напр Скр Прв ур.ст ур.м изм
22:00 +21.8° Ю,Ю-В 2 - 4 км слабый ливневый дождь облачно 748 754 +1.1 93% +20.6° 1 км - - - -
19:00 +26.8° штиль 0 - 10 км слабый дождь с перерывами облачно 747 752 -0.3 77% +22.4° 1 км 15 - - -
16:00 +27.6° Ю 1 - 10 км небо без изменений {дождь} преимущественно облачно 747 753 +0.7 77% +23.3° 1 км - - - -
13:00 +24.2° В,Ю-В 1 - 10 км гроза {ливневые осадки} облачно 746 752 -1 92% +22.8° 1 км - - - -
10:00 +27.3° штиль 0 - 10 км - облачно 747 753 +0.2 80% +23.5° 1 км - - - -
07:00 +24.3° В 2 - 10 км - облачно 747 753 +0.1 90% +22.5° 1 км 0 Сырая (есть малые или большие лужи) +22° -
04:00 +23.1° В 2 - 10 км - переменная облачность 747 753 +0.3 91% +21.6° более 2.5 км - - - -
01:00 +24.8° В 1 - 10 км - ясно 747 753 +0.1 86% +22.3° более 2.5 км - - - -
Четверг, 19 Июля
Время местн. Темп Ветер Видим Явления Облачность нижн/средн/верх Атм. давл. Влжн Точка росы ВНГО R Сост. почвы Tg s
Напр Скр Прв ур.ст ур.м изм
22:00 +26.9° Ю,Ю-З 1 - 20 км - переменная облачность 747 752 +0.9 83% +23.7° 1 км - - - -
19:00 +30.7° Ю-З 1 - 20 км - переменная облачность 746 751 -0.5 66% +23.5° 1 км 18 - - -
16:00 +29.6° З 2 - 20 км - облачно с прояснениями 746 752 -0.6 67% +22.8° 1 км - - - -
13:00 +25.9° Ю-В 2 - 10 км - облачно 747 753 -0.4 76% +21.4° 1 км - - - -
10:00 +20.9° Ю 2 - 10 км ливневый дождь облачно 747 753 -0.3 94% +19.9° 1 км - - - -
07:00 +20.7° Ю,Ю-В 1 - 2 км умеренный или сильный ливневый дождь облачно 747 753 -0.2 94% +19.7° 1 км 16 Сырая (есть малые или большие лужи) +21° -
04:00 +23.3° Ю 3 - 2 км дымка преимущественно облачно 748 753 -1.1 83% +20.3° 1 км - - - -
01:00 +23° Ю-В 2 - 2 км дымка облачно 749 755 -0.8 91% +21.4° - - - - -
Среда, 18 Июля
Время местн. Темп Ветер Видим Явления Облачность нижн/средн/верх Атм. давл. Влжн Точка росы ВНГО R Сост. почвы Tg s
Напр Скр Прв ур.ст ур.м изм
22:00 +22.7° В,Ю-В 1 - 10 км небо без изменений {ливневые осадки} облачно 750 755 -0.4 91% +21.2° - - - - -
19:00 +23.2° Ю-В 3 - 4 км дымка облачно 750 756 -0.4 87% +21° 1 км 0 - - -
16:00 +23.5° Ю-В 3 - 10 км - облачно 750 756 -1 84% +20.7° - - - - -
13:00 +23° В,Ю-В 3 - 10 км - облачно 751 757 -0.5 83% +20° 1 км - - - -
10:00 +20.6° Ю-В 3 - 4 км дымка облачно 752 758 +0.2 88% +18.6° 1 км - - - -
07:00 +20.8° Ю-В 2 - 10 км - облачно 751 757 +0.4 - - 1 км 0 Влажная (без луж) +21° -
04:00 +20.9° В,Ю-В 3 - 10 км - облачно 751 757 -0.2 85% +18.2° 1 км - - - -
01:00 +22.3° В,Ю-В 1 - 10 км - облачно 751 757 +0.6 81% +18.8° 1 км - - - -